sensor_id;sensor_type;location;lat;lon;timestamp;pressure;altitude;pressure_sealevel;temperature;humidity
60705;BME280;46545;38.014;-7.874;2024-03-08T00:01:19;98109.28;;;7.42;100.00
60705;BME280;46545;38.014;-7.874;2024-03-08T00:03:19;98110.66;;;7.45;100.00
60705;BME280;46545;38.014;-7.874;2024-03-08T00:05:20;98103.41;;;7.40;100.00
60705;BME280;46545;38.014;-7.874;2024-03-08T00:07:21;98113.31;;;7.45;100.00
60705;BME280;46545;38.014;-7.874;2024-03-08T00:09:23;98114.63;;;7.42;100.00
60705;BME280;46545;38.014;-7.874;2024-03-08T00:11:23;98115.44;;;7.43;100.00
60705;BME280;46545;38.014;-7.874;2024-03-08T00:13:26;98127.22;;;7.47;100.00
60705;BME280;46545;38.014;-7.874;2024-03-08T00:15:27;98128.00;;;7.47;100.00
60705;BME280;46545;38.014;-7.874;2024-03-08T00:17:29;98136.56;;;7.50;100.00
60705;BME280;46545;38.014;-7.874;2024-03-08T00:19:31;98156.13;;;7.55;100.00
60705;BME280;46545;38.014;-7.874;2024-03-08T00:21:32;98151.28;;;7.52;100.00
60705;BME280;46545;38.014;-7.874;2024-03-08T00:23:33;98159.03;;;7.54;100.00
60705;BME280;46545;38.014;-7.874;2024-03-08T00:25:33;98147.34;;;7.55;100.00
60705;BME280;46545;38.014;-7.874;2024-03-08T00:27:34;98144.16;;;7.58;100.00
60705;BME280;46545;38.014;-7.874;2024-03-08T00:29:35;98132.19;;;7.60;100.00
60705;BME280;46545;38.014;-7.874;2024-03-08T00:31:35;98134.72;;;7.67;100.00
60705;BME280;46545;38.014;-7.874;2024-03-08T00:33:36;98132.09;;;7.72;100.00
60705;BME280;46545;38.014;-7.874;2024-03-08T00:35:37;98131.31;;;7.72;100.00
60705;BME280;46545;38.014;-7.874;2024-03-08T00:37:37;98133.97;;;7.72;100.00
60705;BME280;46545;38.014;-7.874;2024-03-08T00:39:38;98125.97;;;7.72;100.00
60705;BME280;46545;38.014;-7.874;2024-03-08T00:41:39;98133.72;;;7.73;100.00
60705;BME280;46545;38.014;-7.874;2024-03-08T00:43:39;98136.63;;;7.72;100.00
60705;BME280;46545;38.014;-7.874;2024-03-08T00:45:40;98139.78;;;7.68;100.00
60705;BME280;46545;38.014;-7.874;2024-03-08T00:47:42;98134.16;;;7.65;100.00
60705;BME280;46545;38.014;-7.874;2024-03-08T00:49:44;98138.34;;;7.61;100.00
60705;BME280;46545;38.014;-7.874;2024-03-08T00:51:45;98130.59;;;7.59;100.00
60705;BME280;46545;38.014;-7.874;2024-03-08T00:53:45;98137.78;;;7.59;100.00
60705;BME280;46545;38.014;-7.874;2024-03-08T00:55:47;98122.28;;;7.56;100.00
60705;BME280;46545;38.014;-7.874;2024-03-08T00:57:47;98132.13;;;7.55;100.00
60705;BME280;46545;38.014;-7.874;2024-03-08T00:59:48;98122.28;;;7.56;100.00
60705;BME280;46545;38.014;-7.874;2024-03-08T01:01:49;98117.50;;;7.58;100.00
60705;BME280;46545;38.014;-7.874;2024-03-08T01:03:49;98130.09;;;7.62;100.00
60705;BME280;46545;38.014;-7.874;2024-03-08T01:05:50;98126.63;;;7.62;100.00
60705;BME280;46545;38.014;-7.874;2024-03-08T01:07:51;98119.44;;;7.62;100.00
60705;BME280;46545;38.014;-7.874;2024-03-08T01:09:52;98124.19;;;7.60;100.00
60705;BME280;46545;38.014;-7.874;2024-03-08T01:11:54;98133.31;;;7.64;100.00
60705;BME280;46545;38.014;-7.874;2024-03-08T01:13:55;98107.97;;;7.62;100.00
60705;BME280;46545;38.014;-7.874;2024-03-08T01:15:55;98099.91;;;7.57;100.00
60705;BME280;46545;38.014;-7.874;2024-03-08T01:17:56;98112.72;;;7.60;100.00
60705;BME280;46545;38.014;-7.874;2024-03-08T01:19:57;98128.41;;;7.56;100.00
60705;BME280;46545;38.014;-7.874;2024-03-08T01:21:58;98127.38;;;7.57;100.00
60705;BME280;46545;38.014;-7.874;2024-03-08T01:24:00;98128.16;;;7.58;100.00
60705;BME280;46545;38.014;-7.874;2024-03-08T01:26:00;98124.47;;;7.59;100.00
60705;BME280;46545;38.014;-7.874;2024-03-08T01:28:02;98125.81;;;7.61;100.00
60705;BME280;46545;38.014;-7.874;2024-03-08T01:30:03;98128.00;;;7.64;100.00
60705;BME280;46545;38.014;-7.874;2024-03-08T01:32:05;98131.16;;;7.61;100.00
60705;BME280;46545;38.014;-7.874;2024-03-08T01:34:06;98135.19;;;7.64;100.00
60705;BME280;46545;38.014;-7.874;2024-03-08T01:36:07;98129.84;;;7.64;100.00
60705;BME280;46545;38.014;-7.874;2024-03-08T01:38:08;98130.09;;;7.62;100.00
60705;BME280;46545;38.014;-7.874;2024-03-08T01:40:09;98128.72;;;7.60;100.00
60705;BME280;46545;38.014;-7.874;2024-03-08T01:42:10;98127.44;;;7.62;100.00
60705;BME280;46545;38.014;-7.874;2024-03-08T01:44:13;98114.34;;;7.61;100.00
60705;BME280;46545;38.014;-7.874;2024-03-08T01:46:19;98101.50;;;7.58;100.00
60705;BME280;46545;38.014;-7.874;2024-03-08T01:48:22;98108.94;;;7.56;100.00
60705;BME280;46545;38.014;-7.874;2024-03-08T01:50:24;98109.19;;;7.54;100.00
60705;BME280;46545;38.014;-7.874;2024-03-08T01:52:25;98108.56;;;7.47;100.00
60705;BME280;46545;38.014;-7.874;2024-03-08T01:54:26;98114.91;;;7.46;100.00
60705;BME280;46545;38.014;-7.874;2024-03-08T01:56:27;98117.34;;;7.47;100.00
60705;BME280;46545;38.014;-7.874;2024-03-08T01:58:29;98126.56;;;7.57;100.00
60705;BME280;46545;38.014;-7.874;2024-03-08T02:00:31;98130.59;;;7.59;100.00
60705;BME280;46545;38.014;-7.874;2024-03-08T02:02:33;98122.66;;;7.64;100.00
60705;BME280;46545;38.014;-7.874;2024-03-08T02:04:37;98135.28;;;7.69;100.00
60705;BME280;46545;38.014;-7.874;2024-03-08T02:06:39;98119.75;;;7.66;100.00
60705;BME280;46545;38.014;-7.874;2024-03-08T02:08:41;98109.31;;;7.64;100.00
60705;BME280;46545;38.014;-7.874;2024-03-08T02:10:44;98100.69;;;7.57;100.00
60705;BME280;46545;38.014;-7.874;2024-03-08T02:12:46;98107.25;;;7.50;100.00
60705;BME280;46545;38.014;-7.874;2024-03-08T02:14:47;98094.00;;;7.38;100.00
60705;BME280;46545;38.014;-7.874;2024-03-08T02:16:48;98101.38;;;7.31;100.00
60705;BME280;46545;38.014;-7.874;2024-03-08T02:18:48;98094.59;;;7.23;100.00
60705;BME280;46545;38.014;-7.874;2024-03-08T02:20:51;98085.16;;;7.15;100.00
60705;BME280;46545;38.014;-7.874;2024-03-08T02:22:52;98092.03;;;7.11;100.00
60705;BME280;46545;38.014;-7.874;2024-03-08T02:24:53;98088.22;;;7.07;100.00
60705;BME280;46545;38.014;-7.874;2024-03-08T02:26:53;98085.69;;;7.00;100.00
60705;BME280;46545;38.014;-7.874;2024-03-08T02:28:54;98089.34;;;6.94;100.00
60705;BME280;46545;38.014;-7.874;2024-03-08T02:30:54;98091.91;;;6.89;100.00
60705;BME280;46545;38.014;-7.874;2024-03-08T02:32:56;98092.88;;;6.83;100.00
60705;BME280;46545;38.014;-7.874;2024-03-08T02:34:56;98078.91;;;6.76;100.00
60705;BME280;46545;38.014;-7.874;2024-03-08T02:37:00;98081.81;;;6.74;100.00
60705;BME280;46545;38.014;-7.874;2024-03-08T02:39:02;98074.88;;;6.73;100.00
60705;BME280;46545;38.014;-7.874;2024-03-08T02:41:03;98076.63;;;6.67;100.00
60705;BME280;46545;38.014;-7.874;2024-03-08T02:43:04;98079.28;;;6.67;100.00
60705;BME280;46545;38.014;-7.874;2024-03-08T02:45:05;98076.31;;;6.64;100.00
60705;BME280;46545;38.014;-7.874;2024-03-08T02:47:06;98075.97;;;6.60;100.00
60705;BME280;46545;38.014;-7.874;2024-03-08T02:49:07;98072.75;;;6.58;100.00
60705;BME280;46545;38.014;-7.874;2024-03-08T02:51:08;98065.34;;;6.60;100.00
60705;BME280;46545;38.014;-7.874;2024-03-08T02:53:12;98063.72;;;6.59;100.00
60705;BME280;46545;38.014;-7.874;2024-03-08T02:55:13;98072.53;;;6.60;100.00
60705;BME280;46545;38.014;-7.874;2024-03-08T02:57:16;98058.66;;;6.58;100.00
60705;BME280;46545;38.014;-7.874;2024-03-08T02:59:17;98065.09;;;6.62;100.00
60705;BME280;46545;38.014;-7.874;2024-03-08T03:01:17;98068.00;;;6.60;100.00
60705;BME280;46545;38.014;-7.874;2024-03-08T03:03:20;98062.59;;;6.55;100.00
60705;BME280;46545;38.014;-7.874;2024-03-08T03:05:23;98059.59;;;6.52;100.00
60705;BME280;46545;38.014;-7.874;2024-03-08T03:07:24;98060.31;;;6.47;100.00
60705;BME280;46545;38.014;-7.874;2024-03-08T03:09:27;98063.28;;;6.51;100.00
60705;BME280;46545;38.014;-7.874;2024-03-08T03:11:28;98066.22;;;6.49;100.00
60705;BME280;46545;38.014;-7.874;2024-03-08T03:13:29;98064.34;;;6.50;100.00
60705;BME280;46545;38.014;-7.874;2024-03-08T03:15:30;98067.00;;;6.50;100.00
60705;BME280;46545;38.014;-7.874;2024-03-08T03:17:30;98081.47;;;6.54;100.00
60705;BME280;46545;38.014;-7.874;2024-03-08T03:19:31;98091.38;;;6.58;100.00
60705;BME280;46545;38.014;-7.874;2024-03-08T03:21:32;98090.44;;;6.64;100.00
60705;BME280;46545;38.014;-7.874;2024-03-08T03:23:32;98084.72;;;6.73;100.00
60705;BME280;46545;38.014;-7.874;2024-03-08T03:25:34;98089.66;;;6.81;100.00
60705;BME280;46545;38.014;-7.874;2024-03-08T03:27:35;98072.03;;;6.80;100.00
60705;BME280;46545;38.014;-7.874;2024-03-08T03:29:39;98082.06;;;6.90;100.00
60705;BME280;46545;38.014;-7.874;2024-03-08T03:31:40;98075.72;;;6.91;100.00
60705;BME280;46545;38.014;-7.874;2024-03-08T03:33:41;98069.88;;;6.94;100.00
60705;BME280;46545;38.014;-7.874;2024-03-08T03:35:42;98063.53;;;6.95;100.00
60705;BME280;46545;38.014;-7.874;2024-03-08T03:37:43;98054.00;;;6.99;100.00
60705;BME280;46545;38.014;-7.874;2024-03-08T03:39:51;98052.69;;;7.01;100.00
60705;BME280;46545;38.014;-7.874;2024-03-08T03:41:53;98032.19;;;7.02;100.00
60705;BME280;46545;38.014;-7.874;2024-03-08T03:43:54;98030.41;;;7.07;100.00
60705;BME280;46545;38.014;-7.874;2024-03-08T03:45:54;98035.09;;;7.17;100.00
60705;BME280;46545;38.014;-7.874;2024-03-08T03:47:56;98034.94;;;7.24;100.00
60705;BME280;46545;38.014;-7.874;2024-03-08T03:49:56;98034.19;;;7.28;100.00
60705;BME280;46545;38.014;-7.874;2024-03-08T03:52:02;98056.13;;;7.36;100.00
60705;BME280;46545;38.014;-7.874;2024-03-08T03:54:04;98066.88;;;7.41;100.00
60705;BME280;46545;38.014;-7.874;2024-03-08T03:56:05;98076.47;;;7.42;100.00
60705;BME280;46545;38.014;-7.874;2024-03-08T03:58:07;98070.91;;;7.43;100.00
60705;BME280;46545;38.014;-7.874;2024-03-08T04:00:10;98072.81;;;7.48;100.00
60705;BME280;46545;38.014;-7.874;2024-03-08T04:02:14;98077.13;;;7.49;100.00
60705;BME280;46545;38.014;-7.874;2024-03-08T04:04:15;98095.22;;;7.47;100.00
60705;BME280;46545;38.014;-7.874;2024-03-08T04:06:16;98099.91;;;7.40;100.00
60705;BME280;46545;38.014;-7.874;2024-03-08T04:08:17;98102.75;;;7.33;100.00
60705;BME280;46545;38.014;-7.874;2024-03-08T04:10:17;98088.22;;;7.24;100.00
60705;BME280;46545;38.014;-7.874;2024-03-08T04:12:18;98102.50;;;7.18;100.00
60705;BME280;46545;38.014;-7.874;2024-03-08T04:14:19;98118.41;;;7.13;100.00
60705;BME280;46545;38.014;-7.874;2024-03-08T04:16:19;98125.81;;;7.11;100.00
60705;BME280;46545;38.014;-7.874;2024-03-08T04:18:20;98116.72;;;7.06;100.00
60705;BME280;46545;38.014;-7.874;2024-03-08T04:20:21;98102.03;;;7.04;100.00
60705;BME280;46545;38.014;-7.874;2024-03-08T04:22:21;98087.09;;;7.03;100.00
60705;BME280;46545;38.014;-7.874;2024-03-08T04:24:23;98073.91;;;6.96;100.00
60705;BME280;46545;38.014;-7.874;2024-03-08T04:26:23;98090.00;;;7.01;100.00
60705;BME280;46545;38.014;-7.874;2024-03-08T04:28:24;98087.22;;;6.96;100.00
60705;BME280;46545;38.014;-7.874;2024-03-08T04:30:26;98089.91;;;6.96;100.00
60705;BME280;46545;38.014;-7.874;2024-03-08T04:32:28;98107.84;;;7.01;100.00
60705;BME280;46545;38.014;-7.874;2024-03-08T04:34:30;98123.66;;;7.07;100.00
60705;BME280;46545;38.014;-7.874;2024-03-08T04:36:31;98130.69;;;7.14;100.00
60705;BME280;46545;38.014;-7.874;2024-03-08T04:38:31;98111.81;;;7.15;100.00
60705;BME280;46545;38.014;-7.874;2024-03-08T04:40:32;98104.63;;;7.16;100.00
60705;BME280;46545;38.014;-7.874;2024-03-08T04:42:33;98105.66;;;7.15;100.00
60705;BME280;46545;38.014;-7.874;2024-03-08T04:44:36;98102.75;;;7.16;100.00
60705;BME280;46545;38.014;-7.874;2024-03-08T04:46:38;98105.19;;;7.18;100.00
60705;BME280;46545;38.014;-7.874;2024-03-08T04:48:39;98104.13;;;7.19;100.00
60705;BME280;46545;38.014;-7.874;2024-03-08T04:50:39;98100.97;;;7.22;100.00
60705;BME280;46545;38.014;-7.874;2024-03-08T04:52:40;98106.38;;;7.27;100.00
60705;BME280;46545;38.014;-7.874;2024-03-08T04:54:41;98102.41;;;7.30;100.00
60705;BME280;46545;38.014;-7.874;2024-03-08T04:56:41;98104.09;;;7.36;100.00
60705;BME280;46545;38.014;-7.874;2024-03-08T04:58:42;98112.66;;;7.38;100.00
60705;BME280;46545;38.014;-7.874;2024-03-08T05:00:43;98108.16;;;7.38;100.00
60705;BME280;46545;38.014;-7.874;2024-03-08T05:02:43;98102.84;;;7.38;100.00
60705;BME280;46545;38.014;-7.874;2024-03-08T05:04:44;98110.81;;;7.38;100.00
60705;BME280;46545;38.014;-7.874;2024-03-08T05:06:45;98114.75;;;7.36;100.00
60705;BME280;46545;38.014;-7.874;2024-03-08T05:08:45;98107.03;;;7.34;100.00
60705;BME280;46545;38.014;-7.874;2024-03-08T05:10:46;98108.00;;;7.28;100.00
60705;BME280;46545;38.014;-7.874;2024-03-08T05:12:47;98106.03;;;7.23;100.00
60705;BME280;46545;38.014;-7.874;2024-03-08T05:14:48;98105.41;;;7.16;100.00
60705;BME280;46545;38.014;-7.874;2024-03-08T05:16:50;98102.91;;;7.10;100.00
60705;BME280;46545;38.014;-7.874;2024-03-08T05:18:50;98102.81;;;7.04;100.00
60705;BME280;46545;38.014;-7.874;2024-03-08T05:20:51;98107.75;;;6.96;100.00
60705;BME280;46545;38.014;-7.874;2024-03-08T05:22:52;98122.03;;;6.90;100.00
60705;BME280;46545;38.014;-7.874;2024-03-08T05:24:53;98131.47;;;6.80;100.00
60705;BME280;46545;38.014;-7.874;2024-03-08T05:26:53;98114.56;;;6.75;100.00
60705;BME280;46545;38.014;-7.874;2024-03-08T05:28:54;98128.69;;;6.75;100.00
60705;BME280;46545;38.014;-7.874;2024-03-08T05:30:55;98118.59;;;6.77;100.00
60705;BME280;46545;38.014;-7.874;2024-03-08T05:32:57;98120.81;;;6.80;100.00
60705;BME280;46545;38.014;-7.874;2024-03-08T05:34:57;98126.44;;;6.84;100.00
60705;BME280;46545;38.014;-7.874;2024-03-08T05:36:58;98125.19;;;6.86;100.00
60705;BME280;46545;38.014;-7.874;2024-03-08T05:39:00;98132.44;;;6.91;100.00
60705;BME280;46545;38.014;-7.874;2024-03-08T05:41:00;98131.66;;;6.91;100.00
60705;BME280;46545;38.014;-7.874;2024-03-08T05:43:01;98137.19;;;6.89;100.00
60705;BME280;46545;38.014;-7.874;2024-03-08T05:45:05;98135.84;;;6.86;100.00
60705;BME280;46545;38.014;-7.874;2024-03-08T05:47:10;98131.59;;;6.74;100.00
60705;BME280;46545;38.014;-7.874;2024-03-08T05:49:11;98133.69;;;6.72;100.00
60705;BME280;46545;38.014;-7.874;2024-03-08T05:51:12;98139.84;;;6.72;100.00
60705;BME280;46545;38.014;-7.874;2024-03-08T05:53:13;98128.28;;;6.66;100.00
60705;BME280;46545;38.014;-7.874;2024-03-08T05:55:14;98131.66;;;6.62;100.00
60705;BME280;46545;38.014;-7.874;2024-03-08T05:57:17;98137.59;;;6.52;100.00
60705;BME280;46545;38.014;-7.874;2024-03-08T05:59:18;98129.19;;;6.43;100.00
60705;BME280;46545;38.014;-7.874;2024-03-08T06:01:19;98129.19;;;6.43;100.00
60705;BME280;46545;38.014;-7.874;2024-03-08T06:03:19;98134.16;;;6.40;100.00
60705;BME280;46545;38.014;-7.874;2024-03-08T06:05:21;98126.97;;;6.40;100.00
60705;BME280;46545;38.014;-7.874;2024-03-08T06:07:25;98126.41;;;6.38;100.00
60705;BME280;46545;38.014;-7.874;2024-03-08T06:09:25;98118.34;;;6.33;100.00
60705;BME280;46545;38.014;-7.874;2024-03-08T06:11:26;98127.91;;;6.34;100.00
60705;BME280;46545;38.014;-7.874;2024-03-08T06:13:32;98122.59;;;6.34;100.00
60705;BME280;46545;38.014;-7.874;2024-03-08T06:15:34;98130.50;;;6.29;100.00
60705;BME280;46545;38.014;-7.874;2024-03-08T06:17:36;98127.50;;;6.25;100.00
60705;BME280;46545;38.014;-7.874;2024-03-08T06:19:36;98134.56;;;6.20;100.00
60705;BME280;46545;38.014;-7.874;2024-03-08T06:21:37;98136.41;;;6.19;100.00
60705;BME280;46545;38.014;-7.874;2024-03-08T06:23:38;98136.19;;;6.21;100.00
60705;BME280;46545;38.014;-7.874;2024-03-08T06:25:39;98133.97;;;6.18;100.00
60705;BME280;46545;38.014;-7.874;2024-03-08T06:27:40;98138.50;;;6.17;100.00
60705;BME280;46545;38.014;-7.874;2024-03-08T06:29:43;98154.94;;;6.14;100.00
60705;BME280;46545;38.014;-7.874;2024-03-08T06:31:43;98153.31;;;6.13;100.00
60705;BME280;46545;38.014;-7.874;2024-03-08T06:33:44;98150.44;;;6.15;100.00
60705;BME280;46545;38.014;-7.874;2024-03-08T06:35:45;98152.28;;;6.14;100.00
60705;BME280;46545;38.014;-7.874;2024-03-08T06:37:46;98157.03;;;6.12;100.00
60705;BME280;46545;38.014;-7.874;2024-03-08T06:39:50;98159.34;;;6.09;100.00
60705;BME280;46545;38.014;-7.874;2024-03-08T06:41:55;98149.88;;;6.01;100.00
60705;BME280;46545;38.014;-7.874;2024-03-08T06:43:56;98148.94;;;5.95;100.00
60705;BME280;46545;38.014;-7.874;2024-03-08T06:45:58;98130.91;;;5.85;100.00
60705;BME280;46545;38.014;-7.874;2024-03-08T06:47:58;98137.50;;;5.95;100.00
60705;BME280;46545;38.014;-7.874;2024-03-08T06:49:59;98130.66;;;5.99;100.00
60705;BME280;46545;38.014;-7.874;2024-03-08T06:52:00;98135.75;;;6.00;100.00
60705;BME280;46545;38.014;-7.874;2024-03-08T06:54:01;98143.53;;;6.02;100.00
60705;BME280;46545;38.014;-7.874;2024-03-08T06:56:02;98139.09;;;6.07;100.00
60705;BME280;46545;38.014;-7.874;2024-03-08T06:58:03;98133.53;;;6.09;100.00
60705;BME280;46545;38.014;-7.874;2024-03-08T07:00:04;98134.59;;;6.08;100.00
60705;BME280;46545;38.014;-7.874;2024-03-08T07:02:06;98142.66;;;6.13;100.00
60705;BME280;46545;38.014;-7.874;2024-03-08T07:04:09;98146.63;;;6.11;100.00
60705;BME280;46545;38.014;-7.874;2024-03-08T07:06:12;98137.94;;;6.15;100.00
60705;BME280;46545;38.014;-7.874;2024-03-08T07:08:14;98143.38;;;6.20;100.00
60705;BME280;46545;38.014;-7.874;2024-03-08T07:10:16;98141.84;;;6.24;100.00
60705;BME280;46545;38.014;-7.874;2024-03-08T07:12:17;98143.22;;;6.27;100.00
60705;BME280;46545;38.014;-7.874;2024-03-08T07:14:17;98149.94;;;6.30;100.00
60705;BME280;46545;38.014;-7.874;2024-03-08T07:16:18;98149.78;;;6.36;100.00
60705;BME280;46545;38.014;-7.874;2024-03-08T07:18:19;98149.91;;;6.41;100.00
60705;BME280;46545;38.014;-7.874;2024-03-08T07:20:19;98161.09;;;6.55;100.00
60705;BME280;46545;38.014;-7.874;2024-03-08T07:22:20;98158.94;;;6.69;100.00
60705;BME280;46545;38.014;-7.874;2024-03-08T07:24:22;98155.84;;;6.89;100.00
60705;BME280;46545;38.014;-7.874;2024-03-08T07:26:38;98156.59;;;7.18;100.00
60705;BME280;46545;38.014;-7.874;2024-03-08T07:28:39;98162.44;;;7.32;100.00
60705;BME280;46545;38.014;-7.874;2024-03-08T07:30:39;98157.34;;;7.31;100.00
60705;BME280;46545;38.014;-7.874;2024-03-08T07:32:46;98166.63;;;7.28;100.00
60705;BME280;46545;38.014;-7.874;2024-03-08T07:34:48;98171.88;;;7.40;100.00
60705;BME280;46545;38.014;-7.874;2024-03-08T07:36:51;98165.69;;;8.73;100.00
60705;BME280;46545;38.014;-7.874;2024-03-08T07:38:51;98172.50;;;9.13;100.00
60705;BME280;46545;38.014;-7.874;2024-03-08T07:40:52;98184.59;;;9.21;100.00
60705;BME280;46545;38.014;-7.874;2024-03-08T07:42:53;98177.31;;;11.02;100.00
60705;BME280;46545;38.014;-7.874;2024-03-08T07:44:53;98182.91;;;13.33;100.00
60705;BME280;46545;38.014;-7.874;2024-03-08T07:46:55;98189.09;;;15.12;74.12
60705;BME280;46545;38.014;-7.874;2024-03-08T07:48:55;98184.13;;;16.60;61.39
60705;BME280;46545;38.014;-7.874;2024-03-08T07:50:56;98198.13;;;17.40;56.13
60705;BME280;46545;38.014;-7.874;2024-03-08T07:52:57;98189.19;;;18.07;53.50
60705;BME280;46545;38.014;-7.874;2024-03-08T07:54:57;98186.38;;;18.69;50.65
60705;BME280;46545;38.014;-7.874;2024-03-08T07:56:59;98199.22;;;19.65;48.65
60705;BME280;46545;38.014;-7.874;2024-03-08T07:59:00;98192.28;;;20.02;45.88
60705;BME280;46545;38.014;-7.874;2024-03-08T08:01:00;98199.78;;;20.61;45.17
60705;BME280;46545;38.014;-7.874;2024-03-08T08:03:01;98194.13;;;21.38;43.10
60705;BME280;46545;38.014;-7.874;2024-03-08T08:05:02;98201.41;;;22.01;40.99
60705;BME280;46545;38.014;-7.874;2024-03-08T08:07:04;98212.88;;;21.94;40.69
60705;BME280;46545;38.014;-7.874;2024-03-08T08:09:04;98205.59;;;22.81;39.58
60705;BME280;46545;38.014;-7.874;2024-03-08T08:11:06;98201.53;;;23.27;38.27
60705;BME280;46545;38.014;-7.874;2024-03-08T08:13:06;98208.00;;;23.35;38.39
60705;BME280;46545;38.014;-7.874;2024-03-08T08:15:07;98201.91;;;23.26;38.40
60705;BME280;46545;38.014;-7.874;2024-03-08T08:17:08;98207.75;;;23.52;37.07
60705;BME280;46545;38.014;-7.874;2024-03-08T08:19:09;98207.91;;;24.32;36.88
60705;BME280;46545;38.014;-7.874;2024-03-08T08:21:09;98209.22;;;24.70;35.29
60705;BME280;46545;38.014;-7.874;2024-03-08T08:23:11;98216.66;;;25.79;33.96
60705;BME280;46545;38.014;-7.874;2024-03-08T08:25:12;98230.88;;;24.91;34.68
60705;BME280;46545;38.014;-7.874;2024-03-08T08:27:13;98232.00;;;24.90;34.93
60705;BME280;46545;38.014;-7.874;2024-03-08T08:29:14;98235.50;;;25.42;34.50
60705;BME280;46545;38.014;-7.874;2024-03-08T08:31:15;98227.47;;;24.18;36.07
60705;BME280;46545;38.014;-7.874;2024-03-08T08:33:16;98225.22;;;21.37;41.32
60705;BME280;46545;38.014;-7.874;2024-03-08T08:35:17;98233.91;;;19.50;44.99
60705;BME280;46545;38.014;-7.874;2024-03-08T08:37:20;98241.00;;;18.37;49.03
60705;BME280;46545;38.014;-7.874;2024-03-08T08:39:20;98219.22;;;19.34;47.29
60705;BME280;46545;38.014;-7.874;2024-03-08T08:41:23;98227.00;;;19.96;44.44
60705;BME280;46545;38.014;-7.874;2024-03-08T08:43:23;98217.19;;;21.41;41.87
60705;BME280;46545;38.014;-7.874;2024-03-08T08:45:26;98223.53;;;23.19;38.98
60705;BME280;46545;38.014;-7.874;2024-03-08T08:47:26;98219.66;;;24.16;36.96
60705;BME280;46545;38.014;-7.874;2024-03-08T08:49:27;98222.88;;;22.48;38.79
60705;BME280;46545;38.014;-7.874;2024-03-08T08:51:28;98220.81;;;20.82;43.10
60705;BME280;46545;38.014;-7.874;2024-03-08T08:53:29;98222.16;;;20.67;44.19
60705;BME280;46545;38.014;-7.874;2024-03-08T08:55:29;98223.34;;;22.50;41.45
60705;BME280;46545;38.014;-7.874;2024-03-08T08:57:31;98216.41;;;24.59;36.56
60705;BME280;46545;38.014;-7.874;2024-03-08T08:59:36;98214.53;;;26.11;34.72
60705;BME280;46545;38.014;-7.874;2024-03-08T09:01:40;98212.28;;;26.63;33.46
60705;BME280;46545;38.014;-7.874;2024-03-08T09:03:41;98213.28;;;27.05;32.95
60705;BME280;46545;38.014;-7.874;2024-03-08T09:05:41;98214.00;;;27.89;31.44
60705;BME280;46545;38.014;-7.874;2024-03-08T09:07:46;98216.06;;;28.44;30.80
60705;BME280;46545;38.014;-7.874;2024-03-08T09:09:46;98213.81;;;28.56;29.64
60705;BME280;46545;38.014;-7.874;2024-03-08T09:11:47;98218.47;;;29.04;28.81
60705;BME280;46545;38.014;-7.874;2024-03-08T09:13:48;98219.94;;;29.50;28.79
60705;BME280;46545;38.014;-7.874;2024-03-08T09:15:49;98223.91;;;29.60;28.56
60705;BME280;46545;38.014;-7.874;2024-03-08T09:17:50;98229.72;;;29.36;29.05
60705;BME280;46545;38.014;-7.874;2024-03-08T09:19:51;98226.19;;;28.77;29.24
60705;BME280;46545;38.014;-7.874;2024-03-08T09:21:52;98231.09;;;28.50;29.45
60705;BME280;46545;38.014;-7.874;2024-03-08T09:23:53;98235.63;;;28.31;29.61
60705;BME280;46545;38.014;-7.874;2024-03-08T09:25:54;98239.56;;;27.59;30.30
60705;BME280;46545;38.014;-7.874;2024-03-08T09:27:54;98236.63;;;24.70;34.49
60705;BME280;46545;38.014;-7.874;2024-03-08T09:29:55;98243.34;;;21.96;39.42
60705;BME280;46545;38.014;-7.874;2024-03-08T09:31:56;98236.94;;;19.40;45.84
60705;BME280;46545;38.014;-7.874;2024-03-08T09:33:57;98249.66;;;17.71;50.27
60705;BME280;46545;38.014;-7.874;2024-03-08T09:35:57;98237.34;;;16.92;55.75
60705;BME280;46545;38.014;-7.874;2024-03-08T09:37:58;98226.97;;;16.11;61.92
60705;BME280;46545;38.014;-7.874;2024-03-08T09:39:59;98227.13;;;15.68;64.71
60705;BME280;46545;38.014;-7.874;2024-03-08T09:42:01;98226.22;;;15.02;72.09
60705;BME280;46545;38.014;-7.874;2024-03-08T09:44:03;98231.88;;;14.81;73.22
60705;BME280;46545;38.014;-7.874;2024-03-08T09:46:04;98227.81;;;14.60;80.83
60705;BME280;46545;38.014;-7.874;2024-03-08T09:48:11;98224.91;;;14.56;82.98
60705;BME280;46545;38.014;-7.874;2024-03-08T09:50:15;98220.22;;;14.38;82.58
60705;BME280;46545;38.014;-7.874;2024-03-08T09:52:17;98226.44;;;14.09;84.79
60705;BME280;46545;38.014;-7.874;2024-03-08T09:54:18;98230.53;;;14.01;86.97
60705;BME280;46545;38.014;-7.874;2024-03-08T09:56:22;98232.25;;;13.92;88.75
60705;BME280;46545;38.014;-7.874;2024-03-08T09:58:24;98230.41;;;13.87;85.98
60705;BME280;46545;38.014;-7.874;2024-03-08T10:00:31;98235.59;;;13.79;88.74
60705;BME280;46545;38.014;-7.874;2024-03-08T10:02:34;98238.50;;;13.87;88.73
60705;BME280;46545;38.014;-7.874;2024-03-08T10:04:36;98241.47;;;13.86;87.83
60705;BME280;46545;38.014;-7.874;2024-03-08T10:06:37;98235.59;;;13.79;86.40
60705;BME280;46545;38.014;-7.874;2024-03-08T10:08:37;98228.88;;;13.76;85.94
60705;BME280;46545;38.014;-7.874;2024-03-08T10:10:40;98226.31;;;13.61;81.90
60705;BME280;46545;38.014;-7.874;2024-03-08T10:13:41;98232.16;;;13.73;86.26
60705;BME280;46545;38.014;-7.874;2024-03-08T10:15:43;98229.41;;;13.78;87.33
60705;BME280;46545;38.014;-7.874;2024-03-08T10:17:51;98225.97;;;14.02;85.74
60705;BME280;46545;38.014;-7.874;2024-03-08T10:20:16;98229.09;;;14.14;83.05
60705;BME280;46545;38.014;-7.874;2024-03-08T10:22:18;98226.56;;;14.23;81.79
60705;BME280;46545;38.014;-7.874;2024-03-08T10:24:19;98218.25;;;14.19;73.57
60705;BME280;46545;38.014;-7.874;2024-03-08T10:26:20;98222.34;;;14.11;76.30
60705;BME280;46545;38.014;-7.874;2024-03-08T10:28:24;98221.28;;;14.12;74.66
60705;BME280;46545;38.014;-7.874;2024-03-08T10:30:26;98227.88;;;14.25;76.39
60705;BME280;46545;38.014;-7.874;2024-03-08T10:32:27;98207.50;;;14.43;74.47
60705;BME280;46545;38.014;-7.874;2024-03-08T10:34:28;98218.13;;;14.59;69.97
60705;BME280;46545;38.014;-7.874;2024-03-08T10:36:30;98221.59;;;14.59;72.99